»·PEaware :: N900TB KFLG-KSBA

N900TB :: KFLG-KSBA

FLIGHT INFORMATION

Flight Status: Arrived
Operator: Privately registered:
United States
More flights under this callsign
Pilot: Anonymous 14085 (14085)
Aircraft: SOCATA TBM-900
(TBM9)
More flights by this aircraft type
Origin: KFLG Flagstaff Pulliam
United States
Destination: KSBA Santa Barbara Mun
United States
More flights between these airports :: More routes between these airports
Route: +FLG1 OATES EED HEC PITBL1
File this flight plan on PilotEdge
Remarks: RMK / SIMBRIEF
Altitude:
(Current/Filed)
28,000ft
Speed:
(Current/Filed)
324kts
Departed: 27-Jul-20 09:49 AM
Arrived: 27-Jul-20 11:42 AM
Distance/Time
Traveled:
405nm/1:53
Distance/Time
To Go:
Arrived

Flight Plot

Page will automatically refresh every two minutes.


Map Options




Map Legend


Flown Route
Filed Route
Departure Airport
Arrival Airport
Navaid (VOR, NDB)
Fix

Horizontal Profiles

Position Reports

Time Latitude Longitude Heading Altitude Ground
Speed
27-Jul-20 09:19 35.136149 -111.676492 222 7004ft 0kts
27-Jul-20 09:20 35.136149 -111.676492 222 7004ft 0kts
27-Jul-20 09:21 35.136149 -111.676492 222 7004ft 0kts
27-Jul-20 09:22 35.136149 -111.676492 222 7004ft 0kts
27-Jul-20 09:23 35.136149 -111.676492 222 7004ft 0kts
27-Jul-20 09:24 35.136149 -111.676492 222 7004ft 0kts
27-Jul-20 09:25 35.136149 -111.676492 222 7004ft 0kts
27-Jul-20 09:26 35.136149 -111.676492 222 7004ft 0kts
27-Jul-20 09:27 35.136149 -111.676492 222 7004ft 0kts
27-Jul-20 09:28 35.136149 -111.676492 222 7004ft 0kts
27-Jul-20 09:29 35.136149 -111.676492 222 7004ft 0kts
27-Jul-20 09:30 35.136149 -111.676492 222 7004ft 0kts
27-Jul-20 09:31 35.136149 -111.676492 222 7004ft 0kts
27-Jul-20 09:32 35.136149 -111.676492 222 7004ft 0kts
27-Jul-20 09:33 35.136149 -111.676492 222 7004ft 0kts
27-Jul-20 09:34 35.136149 -111.676492 222 7004ft 0kts
27-Jul-20 09:35 35.136149 -111.676492 222 7004ft 0kts
27-Jul-20 09:36 35.136149 -111.676492 222 7004ft 0kts
27-Jul-20 09:37 35.136149 -111.676492 222 7004ft 0kts
27-Jul-20 09:38 35.136135 -111.676508 222 7004ft 1kts
27-Jul-20 09:39 35.138239 -111.673251 42 7005ft 18kts
27-Jul-20 09:40 35.144158 -111.666936 40 6991ft 30kts
27-Jul-20 09:41 35.149364 -111.661352 35 6980ft 0kts
27-Jul-20 09:42 35.149486 -111.661218 42 6980ft 0kts
27-Jul-20 09:43 35.149486 -111.661218 42 6980ft 0kts
27-Jul-20 09:44 35.149486 -111.661218 42 6980ft 0kts
27-Jul-20 09:45 35.149857 -111.660795 47 6980ft 9kts
27-Jul-20 09:46 35.149848 -111.660290 136 6981ft 0kts
27-Jul-20 09:47 35.149848 -111.660290 136 6981ft 0kts
27-Jul-20 09:48 35.147502 -111.661522 220 6983ft 42kts
27-Jul-20 09:49 35.122528 -111.683129 182 7925ft 145kts
27-Jul-20 09:50 35.079005 -111.682578 181 9901ft 164kts
27-Jul-20 09:51 35.033897 -111.688966 187 11917ft 166kts
27-Jul-20 09:52 34.986808 -111.694452 185 13660ft 172kts
27-Jul-20 09:53 34.943744 -111.699986 184 15215ft 187kts
27-Jul-20 09:54 34.914053 -111.703791 184 16288ft 193kts
27-Jul-20 09:55 34.870399 -111.726810 258 18254ft 210kts
27-Jul-20 09:56 34.867794 -111.798204 264 20096ft 214kts
27-Jul-20 09:57 34.865781 -111.871635 263 21742ft 219kts
27-Jul-20 09:58 34.863697 -111.946128 263 23238ft 222kts
27-Jul-20 09:59 34.861535 -112.021779 262 24602ft 225kts
27-Jul-20 10:00 34.859291 -112.098547 262 25845ft 228kts
27-Jul-20 10:01 34.856977 -112.176230 262 26976ft 230kts
27-Jul-20 10:03 34.854592 -112.254414 262 27831ft 236kts
27-Jul-20 10:04 34.851932 -112.339129 263 28243ft 264kts
27-Jul-20 10:05 34.849741 -112.408075 263 28238ft 280kts
27-Jul-20 10:06 34.846755 -112.500271 263 28232ft 288kts
27-Jul-20 10:07 34.843481 -112.598888 263 28230ft 291kts
27-Jul-20 10:08 34.840118 -112.697774 262 28232ft 292kts
27-Jul-20 10:09 34.836672 -112.796784 262 28231ft 293kts
27-Jul-20 10:10 34.833147 -112.895832 262 28231ft 292kts
27-Jul-20 10:11 34.831519 -112.940670 262 28231ft 291kts
27-Jul-20 10:12 34.827906 -113.038798 262 28231ft 288kts
27-Jul-20 10:13 34.824240 -113.136122 262 28189ft 287kts
27-Jul-20 10:14 34.820512 -113.233114 262 28141ft 287kts
27-Jul-20 10:15 34.816991 -113.323482 262 29378ft 257kts
27-Jul-20 10:16 34.813537 -113.409910 262 30105ft 255kts
27-Jul-20 10:17 34.809864 -113.499831 262 30116ft 273kts
27-Jul-20 10:18 34.805999 -113.593310 262 30111ft 279kts
27-Jul-20 10:19 34.800461 -113.687761 259 30114ft 280kts
27-Jul-20 10:19 34.804110 -113.766921 287 30105ft 294kts
27-Jul-20 10:21 34.828262 -113.872994 248 30089ft 277kts
27-Jul-20 10:22 34.793572 -113.955786 253 30027ft 281kts
27-Jul-20 10:22 34.786921 -114.034997 261 29988ft 284kts
27-Jul-20 10:24 34.781606 -114.147011 261 29944ft 284kts
27-Jul-20 10:24 34.777849 -114.227403 261 29917ft 284kts
27-Jul-20 10:25 34.773318 -114.322985 261 29910ft 283kts
27-Jul-20 10:26 34.768703 -114.418785 261 29910ft 283kts
27-Jul-20 10:27 34.766934 -114.514967 266 29911ft 285kts
27-Jul-20 10:28 34.769181 -114.611322 266 29910ft 285kts
27-Jul-20 10:29 34.771329 -114.707893 266 29914ft 285kts
27-Jul-20 10:30 34.773399 -114.804467 266 29916ft 285kts
27-Jul-20 10:31 34.775386 -114.900922 266 29918ft 285kts
27-Jul-20 10:32 34.777311 -114.997558 266 29920ft 285kts
27-Jul-20 10:33 34.779146 -115.093709 265 29919ft 283kts
27-Jul-20 10:34 34.780888 -115.189051 265 29919ft 281kts
27-Jul-20 10:35 34.782536 -115.283703 265 29945ft 278kts
27-Jul-20 10:36 34.784110 -115.377878 265 29981ft 277kts
27-Jul-20 10:37 34.785603 -115.471504 265 30014ft 277kts
27-Jul-20 10:38 34.787026 -115.565248 265 30038ft 277kts
27-Jul-20 10:39 34.788379 -115.659240 264 30065ft 277kts
27-Jul-20 10:40 34.789661 -115.752943 264 30077ft 277kts
27-Jul-20 10:41 34.790874 -115.847032 264 30076ft 278kts
27-Jul-20 10:42 34.792013 -115.941115 264 30076ft 278kts
27-Jul-20 10:43 34.793081 -116.035315 264 30075ft 278kts
27-Jul-20 10:44 34.794074 -116.129327 264 30074ft 278kts
27-Jul-20 10:45 34.794995 -116.223399 264 30063ft 278kts
27-Jul-20 10:46 34.795846 -116.317529 264 30041ft 278kts
27-Jul-20 10:47 34.796625 -116.411821 264 30019ft 278kts
27-Jul-20 10:48 34.790774 -116.504713 255 30018ft 273kts
27-Jul-20 10:49 34.779712 -116.580478 255 30017ft 273kts
27-Jul-20 10:50 34.766191 -116.671833 254 30022ft 273kts
27-Jul-20 10:51 34.752645 -116.762860 254 30021ft 273kts
27-Jul-20 10:52 34.739017 -116.853930 254 30021ft 273kts
27-Jul-20 10:53 34.725324 -116.944932 254 30017ft 273kts
27-Jul-20 10:54 34.711587 -117.035724 254 30009ft 272kts
27-Jul-20 10:55 34.697802 -117.126381 255 30002ft 272kts
27-Jul-20 10:56 34.684013 -117.216676 255 29993ft 271kts
27-Jul-20 10:57 34.670237 -117.306392 255 29999ft 270kts
27-Jul-20 10:58 34.656331 -117.396443 255 29998ft 270kts
27-Jul-20 10:59 34.642387 -117.486307 255 29998ft 270kts
27-Jul-20 11:00 34.628392 -117.576068 255 29997ft 270kts
27-Jul-20 11:01 34.614369 -117.665479 254 30012ft 270kts
27-Jul-20 11:02 34.600261 -117.755068 254 30030ft 270kts
27-Jul-20 11:03 34.586052 -117.844869 254 30049ft 270kts
27-Jul-20 11:04 34.571817 -117.934332 254 30054ft 270kts
27-Jul-20 11:05 34.557486 -118.023857 255 30045ft 268kts
27-Jul-20 11:06 34.543258 -118.112503 255 30043ft 267kts
27-Jul-20 11:07 34.529062 -118.200476 255 30038ft 266kts
27-Jul-20 11:08 34.514688 -118.289076 255 30030ft 266kts
27-Jul-20 11:09 34.500207 -118.377900 255 29560ft 281kts
27-Jul-20 11:10 34.484384 -118.474880 255 28087ft 300kts
27-Jul-20 11:11 34.467967 -118.575050 254 26725ft 305kts
27-Jul-20 11:12 34.451282 -118.676287 254 25377ft 308kts
27-Jul-20 11:13 34.434391 -118.778292 253 24056ft 305kts
27-Jul-20 11:14 34.417437 -118.877557 254 22627ft 304kts
27-Jul-20 11:15 34.400198 -118.977952 255 20922ft 305kts
27-Jul-20 11:16 34.382977 -119.078082 256 19209ft 303kts
27-Jul-20 11:17 34.366371 -119.176951 256 17533ft 297kts
27-Jul-20 11:18 34.350314 -119.272099 256 15505ft 279kts
27-Jul-20 11:19 34.335007 -119.362362 257 13487ft 271kts
27-Jul-20 11:20 34.319766 -119.451841 257 11475ft 271kts
27-Jul-20 11:21 34.307077 -119.539228 262 9952ft 257kts
27-Jul-20 11:22 34.298893 -119.622724 262 8434ft 245kts
27-Jul-20 11:23 34.291216 -119.702300 262 7071ft 232kts
27-Jul-20 11:24 34.283944 -119.778741 262 6007ft 225kts
27-Jul-20 11:25 34.276906 -119.853361 262 5990ft 221kts
27-Jul-20 11:26 34.269950 -119.927440 262 5990ft 221kts
27-Jul-20 11:27 34.263009 -120.001595 262 5990ft 221kts
27-Jul-20 11:28 34.256264 -120.073503 262 5989ft 208kts
27-Jul-20 11:29 34.249725 -120.142778 262 5996ft 207kts
27-Jul-20 11:30 34.244509 -120.211290 284 5968ft 202kts
27-Jul-20 11:31 34.294351 -120.218592 12 5998ft 199kts
27-Jul-20 11:32 34.339253 -120.206003 23 5986ft 202kts
27-Jul-20 11:33 34.376319 -120.152733 52 5109ft 213kts
27-Jul-20 11:34 34.412791 -120.095110 54 3764ft 212kts
27-Jul-20 11:35 34.423885 -120.034815 89 2918ft 161kts
27-Jul-20 11:36 34.424722 -119.991430 91 2370ft 114kts
27-Jul-20 11:37 34.425443 -119.954817 91 1647ft 104kts
27-Jul-20 11:38 34.426158 -119.919437 91 1090ft 100kts
27-Jul-20 11:39 34.427039 -119.884633 92 535ft 104kts
27-Jul-20 11:40 34.427585 -119.851338 92 27ft 81kts
27-Jul-20 11:41 34.427824 -119.839066 91 16ft 21kts
27-Jul-20 11:42 34.426229 -119.838216 166 16ft 0kts
27-Jul-20 11:43 34.423807 -119.837407 168 16ft 0kts

Navigation Log

Ident Type
Flight plan parsing failed, navigation log unavailable